sensor_id;sensor_type;location;lat;lon;timestamp;P1;durP1;ratioP1;P2;durP2;ratioP2
40256;SDS011;25977;45.462;9.210;2024-01-07T00:02:10;8.50;;;7.45;;
40256;SDS011;25977;45.462;9.210;2024-01-07T00:04:36;7.88;;;6.78;;
40256;SDS011;25977;45.462;9.210;2024-01-07T00:07:02;8.32;;;7.53;;
40256;SDS011;25977;45.462;9.210;2024-01-07T00:09:29;7.85;;;7.13;;
40256;SDS011;25977;45.462;9.210;2024-01-07T00:11:54;8.02;;;6.78;;
40256;SDS011;25977;45.462;9.210;2024-01-07T00:14:20;8.13;;;7.43;;
40256;SDS011;25977;45.462;9.210;2024-01-07T00:16:46;8.18;;;7.40;;
40256;SDS011;25977;45.462;9.210;2024-01-07T00:19:11;9.43;;;8.43;;
40256;SDS011;25977;45.462;9.210;2024-01-07T00:21:37;8.27;;;7.45;;
40256;SDS011;25977;45.462;9.210;2024-01-07T00:24:02;8.27;;;7.22;;
40256;SDS011;25977;45.462;9.210;2024-01-07T00:26:28;8.43;;;7.18;;
40256;SDS011;25977;45.462;9.210;2024-01-07T00:28:54;8.20;;;7.40;;
40256;SDS011;25977;45.462;9.210;2024-01-07T00:31:19;10.32;;;7.90;;
40256;SDS011;25977;45.462;9.210;2024-01-07T00:33:45;9.20;;;7.78;;
40256;SDS011;25977;45.462;9.210;2024-01-07T00:36:11;13.27;;;9.13;;
40256;SDS011;25977;45.462;9.210;2024-01-07T00:38:37;12.25;;;9.07;;
40256;SDS011;25977;45.462;9.210;2024-01-07T00:41:02;12.48;;;9.32;;
40256;SDS011;25977;45.462;9.210;2024-01-07T00:43:28;9.88;;;7.85;;
40256;SDS011;25977;45.462;9.210;2024-01-07T00:45:54;10.30;;;8.23;;
40256;SDS011;25977;45.462;9.210;2024-01-07T00:48:20;9.25;;;8.25;;
40256;SDS011;25977;45.462;9.210;2024-01-07T00:50:46;11.80;;;8.38;;
40256;SDS011;25977;45.462;9.210;2024-01-07T00:53:11;10.95;;;8.57;;
40256;SDS011;25977;45.462;9.210;2024-01-07T00:55:37;9.65;;;8.63;;
40256;SDS011;25977;45.462;9.210;2024-01-07T00:58:03;10.13;;;8.43;;
40256;SDS011;25977;45.462;9.210;2024-01-07T01:00:28;10.90;;;7.78;;
40256;SDS011;25977;45.462;9.210;2024-01-07T01:02:54;12.40;;;8.35;;
40256;SDS011;25977;45.462;9.210;2024-01-07T01:05:20;9.88;;;7.63;;
40256;SDS011;25977;45.462;9.210;2024-01-07T01:07:46;8.32;;;7.53;;
40256;SDS011;25977;45.462;9.210;2024-01-07T01:10:12;7.75;;;7.03;;
40256;SDS011;25977;45.462;9.210;2024-01-07T01:12:39;9.77;;;8.05;;
40256;SDS011;25977;45.462;9.210;2024-01-07T01:15:05;8.13;;;7.32;;
40256;SDS011;25977;45.462;9.210;2024-01-07T01:17:31;8.77;;;7.88;;
40256;SDS011;25977;45.462;9.210;2024-01-07T01:19:57;9.52;;;7.78;;
40256;SDS011;25977;45.462;9.210;2024-01-07T01:22:22;9.57;;;8.25;;
40256;SDS011;25977;45.462;9.210;2024-01-07T01:24:48;9.55;;;8.55;;
40256;SDS011;25977;45.462;9.210;2024-01-07T01:27:14;8.80;;;7.75;;
40256;SDS011;25977;45.462;9.210;2024-01-07T01:29:40;8.30;;;7.47;;
40256;SDS011;25977;45.462;9.210;2024-01-07T01:32:06;7.65;;;6.95;;
40256;SDS011;25977;45.462;9.210;2024-01-07T01:34:32;9.65;;;8.38;;
40256;SDS011;25977;45.462;9.210;2024-01-07T01:36:58;9.05;;;7.93;;
40256;SDS011;25977;45.462;9.210;2024-01-07T01:39:23;10.13;;;8.10;;
40256;SDS011;25977;45.462;9.210;2024-01-07T01:41:49;11.85;;;8.02;;
40256;SDS011;25977;45.462;9.210;2024-01-07T01:44:15;10.77;;;8.98;;
40256;SDS011;25977;45.462;9.210;2024-01-07T01:46:41;11.52;;;8.05;;
40256;SDS011;25977;45.462;9.210;2024-01-07T01:49:07;10.43;;;7.75;;
40256;SDS011;25977;45.462;9.210;2024-01-07T01:51:33;10.73;;;8.02;;
40256;SDS011;25977;45.462;9.210;2024-01-07T01:54:00;9.68;;;7.65;;
40256;SDS011;25977;45.462;9.210;2024-01-07T01:56:27;12.07;;;9.15;;
40256;SDS011;25977;45.462;9.210;2024-01-07T01:58:54;9.20;;;8.30;;
40256;SDS011;25977;45.462;9.210;2024-01-07T02:01:20;10.73;;;7.65;;
40256;SDS011;25977;45.462;9.210;2024-01-07T02:03:48;8.88;;;7.85;;
40256;SDS011;25977;45.462;9.210;2024-01-07T02:06:14;9.18;;;8.27;;
40256;SDS011;25977;45.462;9.210;2024-01-07T02:08:41;11.20;;;7.93;;
40256;SDS011;25977;45.462;9.210;2024-01-07T02:11:16;8.65;;;7.90;;
40256;SDS011;25977;45.462;9.210;2024-01-07T02:13:42;10.77;;;8.93;;
40256;SDS011;25977;45.462;9.210;2024-01-07T02:16:08;9.05;;;8.15;;
40256;SDS011;25977;45.462;9.210;2024-01-07T02:18:34;12.13;;;7.63;;
40256;SDS011;25977;45.462;9.210;2024-01-07T02:21:00;9.25;;;7.82;;
40256;SDS011;25977;45.462;9.210;2024-01-07T02:23:25;12.07;;;9.32;;
40256;SDS011;25977;45.462;9.210;2024-01-07T02:25:51;9.18;;;8.23;;
40256;SDS011;25977;45.462;9.210;2024-01-07T02:28:17;9.90;;;8.00;;
40256;SDS011;25977;45.462;9.210;2024-01-07T02:30:43;9.57;;;8.02;;
40256;SDS011;25977;45.462;9.210;2024-01-07T02:33:09;9.35;;;7.85;;
40256;SDS011;25977;45.462;9.210;2024-01-07T02:35:35;8.15;;;7.13;;
40256;SDS011;25977;45.462;9.210;2024-01-07T02:38:01;9.55;;;8.55;;
40256;SDS011;25977;45.462;9.210;2024-01-07T02:40:26;11.80;;;8.93;;
40256;SDS011;25977;45.462;9.210;2024-01-07T02:42:52;9.05;;;7.88;;
40256;SDS011;25977;45.462;9.210;2024-01-07T02:45:20;9.07;;;8.15;;
40256;SDS011;25977;45.462;9.210;2024-01-07T02:47:46;8.55;;;7.03;;
40256;SDS011;25977;45.462;9.210;2024-01-07T02:50:12;9.30;;;8.45;;
40256;SDS011;25977;45.462;9.210;2024-01-07T02:52:38;10.30;;;8.23;;
40256;SDS011;25977;45.462;9.210;2024-01-07T02:55:03;8.77;;;7.57;;
40256;SDS011;25977;45.462;9.210;2024-01-07T02:57:29;9.00;;;8.20;;
40256;SDS011;25977;45.462;9.210;2024-01-07T02:59:55;9.25;;;8.27;;
40256;SDS011;25977;45.462;9.210;2024-01-07T03:02:20;11.43;;;7.90;;
40256;SDS011;25977;45.462;9.210;2024-01-07T03:04:46;9.75;;;8.45;;
40256;SDS011;25977;45.462;9.210;2024-01-07T03:07:12;9.23;;;8.32;;
40256;SDS011;25977;45.462;9.210;2024-01-07T03:09:37;8.52;;;7.72;;
40256;SDS011;25977;45.462;9.210;2024-01-07T03:12:04;10.90;;;8.23;;
40256;SDS011;25977;45.462;9.210;2024-01-07T03:14:30;10.23;;;7.68;;
40256;SDS011;25977;45.462;9.210;2024-01-07T03:16:55;9.38;;;8.23;;
40256;SDS011;25977;45.462;9.210;2024-01-07T03:19:21;7.75;;;6.95;;
40256;SDS011;25977;45.462;9.210;2024-01-07T03:21:47;9.13;;;8.20;;
40256;SDS011;25977;45.462;9.210;2024-01-07T03:24:14;8.10;;;7.28;;
40256;SDS011;25977;45.462;9.210;2024-01-07T03:26:39;10.23;;;8.45;;
40256;SDS011;25977;45.462;9.210;2024-01-07T03:29:05;9.68;;;8.68;;
40256;SDS011;25977;45.462;9.210;2024-01-07T03:31:31;8.85;;;7.93;;
40256;SDS011;25977;45.462;9.210;2024-01-07T03:33:56;10.77;;;8.75;;
40256;SDS011;25977;45.462;9.210;2024-01-07T03:36:22;10.05;;;8.30;;
40256;SDS011;25977;45.462;9.210;2024-01-07T03:38:48;8.07;;;7.38;;
40256;SDS011;25977;45.462;9.210;2024-01-07T03:41:17;9.55;;;7.78;;
40256;SDS011;25977;45.462;9.210;2024-01-07T03:43:44;8.18;;;7.22;;
40256;SDS011;25977;45.462;9.210;2024-01-07T03:46:13;9.45;;;8.52;;
40256;SDS011;25977;45.462;9.210;2024-01-07T03:48:40;9.63;;;8.15;;
40256;SDS011;25977;45.462;9.210;2024-01-07T03:51:06;12.63;;;9.38;;
40256;SDS011;25977;45.462;9.210;2024-01-07T03:53:32;11.75;;;9.07;;
40256;SDS011;25977;45.462;9.210;2024-01-07T03:55:58;11.88;;;9.20;;
40256;SDS011;25977;45.462;9.210;2024-01-07T03:58:24;10.90;;;9.55;;
40256;SDS011;25977;45.462;9.210;2024-01-07T04:00:49;10.52;;;7.97;;
40256;SDS011;25977;45.462;9.210;2024-01-07T04:03:15;11.80;;;9.52;;
40256;SDS011;25977;45.462;9.210;2024-01-07T04:05:41;13.10;;;9.02;;
40256;SDS011;25977;45.462;9.210;2024-01-07T04:08:09;12.02;;;8.70;;
40256;SDS011;25977;45.462;9.210;2024-01-07T04:10:35;9.88;;;8.18;;
40256;SDS011;25977;45.462;9.210;2024-01-07T04:13:01;12.27;;;8.82;;
40256;SDS011;25977;45.462;9.210;2024-01-07T04:15:27;11.15;;;9.63;;
40256;SDS011;25977;45.462;9.210;2024-01-07T04:17:52;12.27;;;9.65;;
40256;SDS011;25977;45.462;9.210;2024-01-07T04:20:18;13.80;;;9.02;;
40256;SDS011;25977;45.462;9.210;2024-01-07T04:22:43;10.82;;;8.80;;
40256;SDS011;25977;45.462;9.210;2024-01-07T04:25:09;11.65;;;9.75;;
40256;SDS011;25977;45.462;9.210;2024-01-07T04:27:36;11.75;;;8.73;;
40256;SDS011;25977;45.462;9.210;2024-01-07T04:30:02;15.75;;;9.65;;
40256;SDS011;25977;45.462;9.210;2024-01-07T04:32:29;8.70;;;7.78;;
40256;SDS011;25977;45.462;9.210;2024-01-07T04:34:55;9.65;;;8.65;;
40256;SDS011;25977;45.462;9.210;2024-01-07T04:37:22;9.27;;;8.38;;
40256;SDS011;25977;45.462;9.210;2024-01-07T04:39:48;12.00;;;9.23;;
40256;SDS011;25977;45.462;9.210;2024-01-07T04:42:14;9.57;;;8.23;;
40256;SDS011;25977;45.462;9.210;2024-01-07T04:44:41;11.63;;;9.18;;
40256;SDS011;25977;45.462;9.210;2024-01-07T04:47:26;10.85;;;8.88;;
40256;SDS011;25977;45.462;9.210;2024-01-07T04:49:56;12.00;;;9.10;;
40256;SDS011;25977;45.462;9.210;2024-01-07T04:52:22;13.63;;;9.43;;
40256;SDS011;25977;45.462;9.210;2024-01-07T04:54:49;11.13;;;9.57;;
40256;SDS011;25977;45.462;9.210;2024-01-07T04:57:15;12.20;;;10.15;;
40256;SDS011;25977;45.462;9.210;2024-01-07T04:59:41;12.85;;;9.70;;
40256;SDS011;25977;45.462;9.210;2024-01-07T05:02:07;12.70;;;9.65;;
40256;SDS011;25977;45.462;9.210;2024-01-07T05:04:32;15.40;;;10.70;;
40256;SDS011;25977;45.462;9.210;2024-01-07T05:06:58;12.07;;;10.32;;
40256;SDS011;25977;45.462;9.210;2024-01-07T05:09:24;11.90;;;9.52;;
40256;SDS011;25977;45.462;9.210;2024-01-07T05:11:49;22.23;;;13.13;;
40256;SDS011;25977;45.462;9.210;2024-01-07T05:14:15;15.20;;;10.85;;
40256;SDS011;25977;45.462;9.210;2024-01-07T05:16:40;15.10;;;10.88;;
40256;SDS011;25977;45.462;9.210;2024-01-07T05:19:06;17.25;;;11.85;;
40256;SDS011;25977;45.462;9.210;2024-01-07T05:21:32;20.13;;;12.63;;
40256;SDS011;25977;45.462;9.210;2024-01-07T05:23:57;14.82;;;10.73;;
40256;SDS011;25977;45.462;9.210;2024-01-07T05:26:23;19.13;;;12.23;;
40256;SDS011;25977;45.462;9.210;2024-01-07T05:28:49;14.35;;;11.15;;
40256;SDS011;25977;45.462;9.210;2024-01-07T05:31:17;14.48;;;11.90;;
40256;SDS011;25977;45.462;9.210;2024-01-07T05:33:47;16.02;;;11.57;;
40256;SDS011;25977;45.462;9.210;2024-01-07T05:36:12;15.82;;;12.30;;
40256;SDS011;25977;45.462;9.210;2024-01-07T05:38:38;13.98;;;11.75;;
40256;SDS011;25977;45.462;9.210;2024-01-07T05:41:06;18.00;;;11.77;;
40256;SDS011;25977;45.462;9.210;2024-01-07T05:43:31;16.63;;;11.57;;
40256;SDS011;25977;45.462;9.210;2024-01-07T05:45:57;16.30;;;11.55;;
40256;SDS011;25977;45.462;9.210;2024-01-07T05:48:24;13.23;;;10.68;;
40256;SDS011;25977;45.462;9.210;2024-01-07T05:50:49;17.77;;;12.43;;
40256;SDS011;25977;45.462;9.210;2024-01-07T05:53:16;14.38;;;11.57;;
40256;SDS011;25977;45.462;9.210;2024-01-07T05:55:42;13.80;;;11.48;;
40256;SDS011;25977;45.462;9.210;2024-01-07T05:58:08;14.93;;;11.75;;
40256;SDS011;25977;45.462;9.210;2024-01-07T06:00:34;14.02;;;10.88;;
40256;SDS011;25977;45.462;9.210;2024-01-07T06:02:59;13.35;;;10.27;;
40256;SDS011;25977;45.462;9.210;2024-01-07T06:05:25;12.57;;;9.98;;
40256;SDS011;25977;45.462;9.210;2024-01-07T06:07:51;14.30;;;10.00;;
40256;SDS011;25977;45.462;9.210;2024-01-07T06:10:17;11.15;;;9.82;;
40256;SDS011;25977;45.462;9.210;2024-01-07T06:12:42;17.48;;;11.70;;
40256;SDS011;25977;45.462;9.210;2024-01-07T06:15:08;16.20;;;11.35;;
40256;SDS011;25977;45.462;9.210;2024-01-07T06:17:34;12.82;;;9.50;;
40256;SDS011;25977;45.462;9.210;2024-01-07T06:20:00;11.15;;;10.05;;
40256;SDS011;25977;45.462;9.210;2024-01-07T06:22:25;14.13;;;10.43;;
40256;SDS011;25977;45.462;9.210;2024-01-07T06:24:51;11.73;;;9.60;;
40256;SDS011;25977;45.462;9.210;2024-01-07T06:27:17;11.68;;;10.45;;
40256;SDS011;25977;45.462;9.210;2024-01-07T06:29:42;11.27;;;10.07;;
40256;SDS011;25977;45.462;9.210;2024-01-07T06:32:08;17.65;;;14.63;;
40256;SDS011;25977;45.462;9.210;2024-01-07T06:34:35;17.23;;;14.52;;
40256;SDS011;25977;45.462;9.210;2024-01-07T06:37:01;11.25;;;9.18;;
40256;SDS011;25977;45.462;9.210;2024-01-07T06:39:27;11.57;;;9.23;;
40256;SDS011;25977;45.462;9.210;2024-01-07T06:41:53;10.07;;;8.68;;
40256;SDS011;25977;45.462;9.210;2024-01-07T06:44:18;10.05;;;8.63;;
40256;SDS011;25977;45.462;9.210;2024-01-07T06:46:44;8.20;;;7.40;;
40256;SDS011;25977;45.462;9.210;2024-01-07T06:49:10;9.13;;;8.23;;
40256;SDS011;25977;45.462;9.210;2024-01-07T06:51:37;10.38;;;9.30;;
40256;SDS011;25977;45.462;9.210;2024-01-07T06:54:03;10.20;;;9.07;;
40256;SDS011;25977;45.462;9.210;2024-01-07T06:56:29;8.50;;;7.65;;
40256;SDS011;25977;45.462;9.210;2024-01-07T06:58:55;11.52;;;10.27;;
40256;SDS011;25977;45.462;9.210;2024-01-07T07:01:21;9.93;;;8.85;;
40256;SDS011;25977;45.462;9.210;2024-01-07T07:03:48;12.75;;;10.68;;
40256;SDS011;25977;45.462;9.210;2024-01-07T07:06:14;9.48;;;8.48;;
40256;SDS011;25977;45.462;9.210;2024-01-07T07:08:40;7.82;;;7.07;;
40256;SDS011;25977;45.462;9.210;2024-01-07T07:11:06;8.25;;;7.10;;
40256;SDS011;25977;45.462;9.210;2024-01-07T07:13:31;7.00;;;6.28;;
40256;SDS011;25977;45.462;9.210;2024-01-07T07:15:57;7.60;;;6.88;;
40256;SDS011;25977;45.462;9.210;2024-01-07T07:18:23;8.70;;;7.78;;
40256;SDS011;25977;45.462;9.210;2024-01-07T07:20:49;7.78;;;7.00;;
40256;SDS011;25977;45.462;9.210;2024-01-07T07:23:15;7.72;;;7.03;;
40256;SDS011;25977;45.462;9.210;2024-01-07T07:25:40;7.25;;;6.63;;
40256;SDS011;25977;45.462;9.210;2024-01-07T07:28:06;8.82;;;8.05;;
40256;SDS011;25977;45.462;9.210;2024-01-07T07:30:32;8.35;;;7.50;;
40256;SDS011;25977;45.462;9.210;2024-01-07T07:32:57;8.15;;;7.18;;
40256;SDS011;25977;45.462;9.210;2024-01-07T07:35:23;6.50;;;5.95;;
40256;SDS011;25977;45.462;9.210;2024-01-07T07:37:49;6.32;;;5.75;;
40256;SDS011;25977;45.462;9.210;2024-01-07T07:40:14;6.05;;;5.55;;
40256;SDS011;25977;45.462;9.210;2024-01-07T07:42:40;6.43;;;5.93;;
40256;SDS011;25977;45.462;9.210;2024-01-07T07:45:06;6.78;;;6.28;;
40256;SDS011;25977;45.462;9.210;2024-01-07T07:47:32;6.47;;;5.85;;
40256;SDS011;25977;45.462;9.210;2024-01-07T07:49:57;6.65;;;6.07;;
40256;SDS011;25977;45.462;9.210;2024-01-07T07:52:23;6.43;;;5.82;;
40256;SDS011;25977;45.462;9.210;2024-01-07T07:54:51;8.13;;;6.68;;
40256;SDS011;25977;45.462;9.210;2024-01-07T07:57:17;7.45;;;6.78;;
40256;SDS011;25977;45.462;9.210;2024-01-07T07:59:45;7.95;;;7.15;;
40256;SDS011;25977;45.462;9.210;2024-01-07T08:02:11;8.60;;;7.43;;
40256;SDS011;25977;45.462;9.210;2024-01-07T08:04:37;7.90;;;7.10;;
40256;SDS011;25977;45.462;9.210;2024-01-07T08:07:06;7.05;;;6.35;;
40256;SDS011;25977;45.462;9.210;2024-01-07T08:09:32;6.90;;;6.25;;
40256;SDS011;25977;45.462;9.210;2024-01-07T08:11:58;7.65;;;6.95;;
40256;SDS011;25977;45.462;9.210;2024-01-07T08:14:24;8.18;;;7.13;;
40256;SDS011;25977;45.462;9.210;2024-01-07T08:16:49;8.48;;;7.65;;
40256;SDS011;25977;45.462;9.210;2024-01-07T08:19:15;6.97;;;5.70;;
40256;SDS011;25977;45.462;9.210;2024-01-07T08:21:41;4.93;;;4.50;;
40256;SDS011;25977;45.462;9.210;2024-01-07T08:24:06;5.43;;;4.95;;
40256;SDS011;25977;45.462;9.210;2024-01-07T08:26:32;3.97;;;3.63;;
40256;SDS011;25977;45.462;9.210;2024-01-07T08:28:58;4.70;;;4.30;;
40256;SDS011;25977;45.462;9.210;2024-01-07T08:31:24;3.50;;;3.20;;
40256;SDS011;25977;45.462;9.210;2024-01-07T08:33:49;3.20;;;3.00;;
40256;SDS011;25977;45.462;9.210;2024-01-07T08:36:15;3.13;;;2.90;;
40256;SDS011;25977;45.462;9.210;2024-01-07T08:38:41;3.40;;;3.20;;
40256;SDS011;25977;45.462;9.210;2024-01-07T08:41:07;3.90;;;3.67;;
40256;SDS011;25977;45.462;9.210;2024-01-07T08:43:33;4.63;;;4.25;;
40256;SDS011;25977;45.462;9.210;2024-01-07T08:45:58;6.00;;;4.95;;
40256;SDS011;25977;45.462;9.210;2024-01-07T08:48:24;3.97;;;3.67;;
40256;SDS011;25977;45.462;9.210;2024-01-07T08:50:50;4.28;;;3.88;;
40256;SDS011;25977;45.462;9.210;2024-01-07T08:53:16;3.67;;;3.38;;
40256;SDS011;25977;45.462;9.210;2024-01-07T08:55:43;4.88;;;4.38;;
40256;SDS011;25977;45.462;9.210;2024-01-07T08:58:08;3.58;;;3.28;;
40256;SDS011;25977;45.462;9.210;2024-01-07T09:00:34;3.28;;;3.08;;
40256;SDS011;25977;45.462;9.210;2024-01-07T09:03:00;4.18;;;3.80;;
40256;SDS011;25977;45.462;9.210;2024-01-07T09:05:25;4.22;;;3.92;;
40256;SDS011;25977;45.462;9.210;2024-01-07T09:07:51;3.83;;;3.53;;
40256;SDS011;25977;45.462;9.210;2024-01-07T09:10:17;4.78;;;4.03;;
40256;SDS011;25977;45.462;9.210;2024-01-07T09:12:44;3.88;;;3.63;;
40256;SDS011;25977;45.462;9.210;2024-01-07T09:15:09;3.72;;;3.42;;
40256;SDS011;25977;45.462;9.210;2024-01-07T09:17:35;3.35;;;2.75;;
40256;SDS011;25977;45.462;9.210;2024-01-07T09:20:06;3.47;;;3.03;;
40256;SDS011;25977;45.462;9.210;2024-01-07T09:22:33;3.40;;;3.20;;
40256;SDS011;25977;45.462;9.210;2024-01-07T09:25:00;3.60;;;3.30;;
40256;SDS011;25977;45.462;9.210;2024-01-07T09:27:27;4.05;;;3.75;;
40256;SDS011;25977;45.462;9.210;2024-01-07T09:29:53;4.20;;;3.90;;
40256;SDS011;25977;45.462;9.210;2024-01-07T09:32:18;3.50;;;3.20;;
40256;SDS011;25977;45.462;9.210;2024-01-07T09:34:44;5.20;;;4.80;;
40256;SDS011;25977;45.462;9.210;2024-01-07T09:37:10;4.93;;;4.13;;
40256;SDS011;25977;45.462;9.210;2024-01-07T09:39:39;2.90;;;2.70;;
40256;SDS011;25977;45.462;9.210;2024-01-07T09:42:07;2.95;;;2.85;;
40256;SDS011;25977;45.462;9.210;2024-01-07T09:44:43;3.72;;;3.45;;
40256;SDS011;25977;45.462;9.210;2024-01-07T09:47:10;7.25;;;6.55;;
40256;SDS011;25977;45.462;9.210;2024-01-07T09:49:37;11.32;;;8.55;;
40256;SDS011;25977;45.462;9.210;2024-01-07T09:52:04;10.82;;;8.38;;
40256;SDS011;25977;45.462;9.210;2024-01-07T09:54:30;8.88;;;8.02;;
40256;SDS011;25977;45.462;9.210;2024-01-07T09:57:03;10.98;;;9.73;;
40256;SDS011;25977;45.462;9.210;2024-01-07T09:59:31;20.30;;;11.68;;
40256;SDS011;25977;45.462;9.210;2024-01-07T10:01:58;18.05;;;12.52;;
40256;SDS011;25977;45.462;9.210;2024-01-07T10:04:24;21.40;;;13.80;;
40256;SDS011;25977;45.462;9.210;2024-01-07T10:06:50;22.38;;;15.57;;
40256;SDS011;25977;45.462;9.210;2024-01-07T10:09:19;36.38;;;17.38;;
40256;SDS011;25977;45.462;9.210;2024-01-07T10:11:46;32.00;;;16.70;;
40256;SDS011;25977;45.462;9.210;2024-01-07T10:14:12;12.68;;;10.43;;
40256;SDS011;25977;45.462;9.210;2024-01-07T10:16:38;13.77;;;11.35;;
40256;SDS011;25977;45.462;9.210;2024-01-07T10:19:04;16.30;;;10.32;;
40256;SDS011;25977;45.462;9.210;2024-01-07T10:21:30;10.45;;;8.05;;
40256;SDS011;25977;45.462;9.210;2024-01-07T10:26:37;8.30;;;6.43;;
40256;SDS011;25977;45.462;9.210;2024-01-07T10:29:03;7.00;;;6.13;;
40256;SDS011;25977;45.462;9.210;2024-01-07T10:31:29;6.35;;;5.43;;
40256;SDS011;25977;45.462;9.210;2024-01-07T10:33:56;6.88;;;5.85;;
40256;SDS011;25977;45.462;9.210;2024-01-07T10:36:22;5.93;;;5.32;;
40256;SDS011;25977;45.462;9.210;2024-01-07T10:38:49;5.18;;;4.68;;
40256;SDS011;25977;45.462;9.210;2024-01-07T10:41:17;4.30;;;4.00;;
40256;SDS011;25977;45.462;9.210;2024-01-07T10:43:45;3.38;;;3.13;;
40256;SDS011;25977;45.462;9.210;2024-01-07T10:46:12;2.70;;;2.50;;
40256;SDS011;25977;45.462;9.210;2024-01-07T10:48:39;2.50;;;2.30;;
40256;SDS011;25977;45.462;9.210;2024-01-07T10:51:18;3.13;;;2.92;;
40256;SDS011;25977;45.462;9.210;2024-01-07T10:53:49;2.35;;;2.25;;
40256;SDS011;25977;45.462;9.210;2024-01-07T10:56:19;3.80;;;3.35;;
40256;SDS011;25977;45.462;9.210;2024-01-07T10:58:49;3.00;;;2.75;;
40256;SDS011;25977;45.462;9.210;2024-01-07T11:01:19;3.83;;;3.53;;
40256;SDS011;25977;45.462;9.210;2024-01-07T11:04:04;3.83;;;3.40;;
40256;SDS011;25977;45.462;9.210;2024-01-07T11:09:46;5.28;;;4.88;;
40256;SDS011;25977;45.462;9.210;2024-01-07T11:12:24;5.28;;;4.85;;
40256;SDS011;25977;45.462;9.210;2024-01-07T11:14:50;4.63;;;4.25;;
40256;SDS011;25977;45.462;9.210;2024-01-07T11:19:59;5.53;;;5.10;;
40256;SDS011;25977;45.462;9.210;2024-01-07T11:22:26;4.85;;;4.45;;
40256;SDS011;25977;45.462;9.210;2024-01-07T11:24:53;6.28;;;5.68;;
40256;SDS011;25977;45.462;9.210;2024-01-07T11:27:21;5.20;;;4.70;;
40256;SDS011;25977;45.462;9.210;2024-01-07T11:29:57;5.30;;;4.80;;
40256;SDS011;25977;45.462;9.210;2024-01-07T11:32:24;6.38;;;4.95;;
40256;SDS011;25977;45.462;9.210;2024-01-07T11:34:53;5.18;;;4.45;;
40256;SDS011;25977;45.462;9.210;2024-01-07T11:37:21;2.97;;;2.78;;
40256;SDS011;25977;45.462;9.210;2024-01-07T11:39:48;3.35;;;3.05;;
40256;SDS011;25977;45.462;9.210;2024-01-07T11:42:16;3.38;;;3.08;;
40256;SDS011;25977;45.462;9.210;2024-01-07T11:44:49;3.58;;;3.35;;
40256;SDS011;25977;45.462;9.210;2024-01-07T11:47:19;3.08;;;2.88;;
40256;SDS011;25977;45.462;9.210;2024-01-07T11:49:46;4.97;;;3.83;;
40256;SDS011;25977;45.462;9.210;2024-01-07T11:52:12;4.68;;;4.15;;
40256;SDS011;25977;45.462;9.210;2024-01-07T11:54:39;3.80;;;3.50;;
40256;SDS011;25977;45.462;9.210;2024-01-07T11:57:06;4.53;;;4.18;;
40256;SDS011;25977;45.462;9.210;2024-01-07T11:59:33;3.97;;;3.58;;
40256;SDS011;25977;45.462;9.210;2024-01-07T12:02:03;3.60;;;3.30;;
40256;SDS011;25977;45.462;9.210;2024-01-07T12:04:32;4.47;;;4.07;;
40256;SDS011;25977;45.462;9.210;2024-01-07T12:06:58;3.83;;;3.53;;
40256;SDS011;25977;45.462;9.210;2024-01-07T12:09:25;4.65;;;4.00;;
40256;SDS011;25977;45.462;9.210;2024-01-07T12:11:51;3.95;;;3.65;;
40256;SDS011;25977;45.462;9.210;2024-01-07T12:14:17;5.35;;;4.75;;
40256;SDS011;25977;45.462;9.210;2024-01-07T12:16:44;4.30;;;4.00;;
40256;SDS011;25977;45.462;9.210;2024-01-07T12:19:10;4.88;;;4.47;;
40256;SDS011;25977;45.462;9.210;2024-01-07T12:21:36;4.30;;;4.00;;
40256;SDS011;25977;45.462;9.210;2024-01-07T12:24:03;4.32;;;3.92;;
40256;SDS011;25977;45.462;9.210;2024-01-07T12:26:29;4.82;;;4.53;;
40256;SDS011;25977;45.462;9.210;2024-01-07T12:28:59;4.78;;;4.38;;
40256;SDS011;25977;45.462;9.210;2024-01-07T12:31:31;5.22;;;4.75;;
40256;SDS011;25977;45.462;9.210;2024-01-07T12:33:58;5.22;;;4.82;;
40256;SDS011;25977;45.462;9.210;2024-01-07T12:36:24;5.50;;;5.10;;
40256;SDS011;25977;45.462;9.210;2024-01-07T12:38:50;5.40;;;4.90;;
40256;SDS011;25977;45.462;9.210;2024-01-07T12:41:19;5.82;;;5.32;;
40256;SDS011;25977;45.462;9.210;2024-01-07T12:43:48;6.72;;;4.50;;
40256;SDS011;25977;45.462;9.210;2024-01-07T12:46:14;4.68;;;4.28;;
40256;SDS011;25977;45.462;9.210;2024-01-07T12:48:40;4.47;;;4.07;;
40256;SDS011;25977;45.462;9.210;2024-01-07T12:51:06;6.22;;;4.07;;
40256;SDS011;25977;45.462;9.210;2024-01-07T12:53:32;5.32;;;4.88;;
40256;SDS011;25977;45.462;9.210;2024-01-07T12:55:58;4.70;;;4.40;;
40256;SDS011;25977;45.462;9.210;2024-01-07T12:58:24;5.28;;;4.80;;
40256;SDS011;25977;45.462;9.210;2024-01-07T13:00:50;6.75;;;5.57;;
40256;SDS011;25977;45.462;9.210;2024-01-07T13:03:16;5.45;;;4.88;;
40256;SDS011;25977;45.462;9.210;2024-01-07T13:05:45;4.80;;;4.50;;
40256;SDS011;25977;45.462;9.210;2024-01-07T13:08:11;4.53;;;4.22;;
40256;SDS011;25977;45.462;9.210;2024-01-07T13:10:38;4.93;;;4.47;;
40256;SDS011;25977;45.462;9.210;2024-01-07T13:13:04;5.65;;;5.05;;
40256;SDS011;25977;45.462;9.210;2024-01-07T13:15:30;6.25;;;5.28;;
40256;SDS011;25977;45.462;9.210;2024-01-07T13:17:56;7.82;;;5.68;;
40256;SDS011;25977;45.462;9.210;2024-01-07T13:20:22;5.10;;;4.65;;
40256;SDS011;25977;45.462;9.210;2024-01-07T13:22:49;5.20;;;4.80;;
40256;SDS011;25977;45.462;9.210;2024-01-07T13:25:14;5.10;;;4.60;;
40256;SDS011;25977;45.462;9.210;2024-01-07T13:27:40;6.57;;;5.53;;
40256;SDS011;25977;45.462;9.210;2024-01-07T13:30:07;5.65;;;4.82;;
40256;SDS011;25977;45.462;9.210;2024-01-07T13:32:33;5.10;;;4.70;;
40256;SDS011;25977;45.462;9.210;2024-01-07T13:35:02;7.07;;;6.38;;
40256;SDS011;25977;45.462;9.210;2024-01-07T13:37:29;6.38;;;5.55;;
40256;SDS011;25977;45.462;9.210;2024-01-07T13:39:56;5.30;;;4.90;;
40256;SDS011;25977;45.462;9.210;2024-01-07T13:42:22;5.10;;;4.60;;
40256;SDS011;25977;45.462;9.210;2024-01-07T13:44:47;5.53;;;4.68;;
40256;SDS011;25977;45.462;9.210;2024-01-07T13:47:13;4.10;;;3.80;;
40256;SDS011;25977;45.462;9.210;2024-01-07T13:49:40;4.85;;;4.55;;
40256;SDS011;25977;45.462;9.210;2024-01-07T13:52:10;4.60;;;3.75;;
40256;SDS011;25977;45.462;9.210;2024-01-07T13:54:36;3.10;;;2.85;;
40256;SDS011;25977;45.462;9.210;2024-01-07T13:57:02;3.50;;;3.20;;
40256;SDS011;25977;45.462;9.210;2024-01-07T13:59:29;2.83;;;2.55;;
40256;SDS011;25977;45.462;9.210;2024-01-07T14:01:54;2.78;;;2.58;;
40256;SDS011;25977;45.462;9.210;2024-01-07T14:04:22;2.75;;;2.55;;
40256;SDS011;25977;45.462;9.210;2024-01-07T14:06:53;3.25;;;2.90;;
40256;SDS011;25977;45.462;9.210;2024-01-07T14:09:22;2.28;;;2.17;;
40256;SDS011;25977;45.462;9.210;2024-01-07T14:11:49;2.30;;;2.10;;
40256;SDS011;25977;45.462;9.210;2024-01-07T14:14:15;2.50;;;2.22;;
40256;SDS011;25977;45.462;9.210;2024-01-07T14:16:41;2.45;;;2.35;;
40256;SDS011;25977;45.462;9.210;2024-01-07T14:19:07;2.65;;;2.45;;
40256;SDS011;25977;45.462;9.210;2024-01-07T14:21:32;3.08;;;1.85;;
40256;SDS011;25977;45.462;9.210;2024-01-07T14:23:58;2.85;;;2.03;;
40256;SDS011;25977;45.462;9.210;2024-01-07T14:26:24;2.08;;;1.98;;
40256;SDS011;25977;45.462;9.210;2024-01-07T14:28:50;2.65;;;2.10;;
40256;SDS011;25977;45.462;9.210;2024-01-07T14:31:16;2.25;;;2.05;;
40256;SDS011;25977;45.462;9.210;2024-01-07T14:33:42;2.17;;;1.85;;
40256;SDS011;25977;45.462;9.210;2024-01-07T14:36:08;2.10;;;2.00;;
40256;SDS011;25977;45.462;9.210;2024-01-07T14:38:41;2.53;;;2.42;;
40256;SDS011;25977;45.462;9.210;2024-01-07T14:41:13;2.42;;;2.33;;
40256;SDS011;25977;45.462;9.210;2024-01-07T14:43:40;2.33;;;2.22;;
40256;SDS011;25977;45.462;9.210;2024-01-07T14:46:06;2.30;;;2.10;;